sensor_id;sensor_type;location;lat;lon;timestamp;P1;durP1;ratioP1;P2;durP2;ratioP2
7330;SDS011;3706;49.198;7.064;2023-09-19T00:00:55;11.27;;;2.60;;
7330;SDS011;3706;49.198;7.064;2023-09-19T00:03:23;4.70;;;2.30;;
7330;SDS011;3706;49.198;7.064;2023-09-19T00:05:52;6.47;;;2.43;;
7330;SDS011;3706;49.198;7.064;2023-09-19T00:08:20;3.03;;;2.10;;
7330;SDS011;3706;49.198;7.064;2023-09-19T00:10:50;4.83;;;2.03;;
7330;SDS011;3706;49.198;7.064;2023-09-19T00:13:18;4.63;;;2.23;;
7330;SDS011;3706;49.198;7.064;2023-09-19T00:15:46;6.17;;;2.20;;
7330;SDS011;3706;49.198;7.064;2023-09-19T00:18:14;3.83;;;1.90;;
7330;SDS011;3706;49.198;7.064;2023-09-19T00:20:42;3.60;;;2.40;;
7330;SDS011;3706;49.198;7.064;2023-09-19T00:23:14;4.83;;;2.27;;
7330;SDS011;3706;49.198;7.064;2023-09-19T00:25:41;3.83;;;2.10;;
7330;SDS011;3706;49.198;7.064;2023-09-19T00:28:07;4.20;;;2.07;;
7330;SDS011;3706;49.198;7.064;2023-09-19T00:30:35;3.17;;;1.90;;
7330;SDS011;3706;49.198;7.064;2023-09-19T00:33:03;3.90;;;2.00;;
7330;SDS011;3706;49.198;7.064;2023-09-19T00:35:32;2.90;;;2.03;;
7330;SDS011;3706;49.198;7.064;2023-09-19T00:37:59;4.33;;;2.10;;
7330;SDS011;3706;49.198;7.064;2023-09-19T00:40:28;3.20;;;1.83;;
7330;SDS011;3706;49.198;7.064;2023-09-19T00:42:57;7.07;;;2.43;;
7330;SDS011;3706;49.198;7.064;2023-09-19T00:45:26;4.73;;;2.07;;
7330;SDS011;3706;49.198;7.064;2023-09-19T00:47:53;4.53;;;2.17;;
7330;SDS011;3706;49.198;7.064;2023-09-19T00:50:22;4.10;;;2.20;;
7330;SDS011;3706;49.198;7.064;2023-09-19T00:52:53;4.37;;;2.27;;
7330;SDS011;3706;49.198;7.064;2023-09-19T00:55:22;4.33;;;2.37;;
7330;SDS011;3706;49.198;7.064;2023-09-19T00:57:51;6.77;;;2.57;;
7330;SDS011;3706;49.198;7.064;2023-09-19T01:00:19;6.80;;;1.97;;
7330;SDS011;3706;49.198;7.064;2023-09-19T01:02:46;3.97;;;2.57;;
7330;SDS011;3706;49.198;7.064;2023-09-19T01:05:14;3.53;;;2.03;;
7330;SDS011;3706;49.198;7.064;2023-09-19T01:07:41;2.77;;;2.20;;
7330;SDS011;3706;49.198;7.064;2023-09-19T01:10:10;4.40;;;2.57;;
7330;SDS011;3706;49.198;7.064;2023-09-19T01:12:43;3.93;;;2.53;;
7330;SDS011;3706;49.198;7.064;2023-09-19T01:15:20;5.30;;;2.13;;
7330;SDS011;3706;49.198;7.064;2023-09-19T01:17:57;4.57;;;2.60;;
7330;SDS011;3706;49.198;7.064;2023-09-19T01:20:34;3.93;;;2.63;;
7330;SDS011;3706;49.198;7.064;2023-09-19T01:23:11;2.90;;;2.10;;
7330;SDS011;3706;49.198;7.064;2023-09-19T01:31:35;3.77;;;2.20;;
7330;SDS011;3706;49.198;7.064;2023-09-19T01:34:06;3.40;;;2.17;;
7330;SDS011;3706;49.198;7.064;2023-09-19T01:36:34;2.67;;;2.00;;
7330;SDS011;3706;49.198;7.064;2023-09-19T01:39:03;4.80;;;2.63;;
7330;SDS011;3706;49.198;7.064;2023-09-19T01:41:40;5.13;;;2.30;;
7330;SDS011;3706;49.198;7.064;2023-09-19T01:44:17;6.17;;;2.47;;
7330;SDS011;3706;49.198;7.064;2023-09-19T01:46:50;3.40;;;2.13;;
7330;SDS011;3706;49.198;7.064;2023-09-19T01:49:31;5.60;;;2.10;;
7330;SDS011;3706;49.198;7.064;2023-09-19T01:52:05;3.33;;;2.07;;
7330;SDS011;3706;49.198;7.064;2023-09-19T01:54:40;3.80;;;2.10;;
7330;SDS011;3706;49.198;7.064;2023-09-19T01:57:14;3.17;;;2.20;;
7330;SDS011;3706;49.198;7.064;2023-09-19T01:59:48;3.03;;;2.53;;
7330;SDS011;3706;49.198;7.064;2023-09-19T02:02:22;5.90;;;2.87;;
7330;SDS011;3706;49.198;7.064;2023-09-19T02:04:50;8.27;;;2.47;;
7330;SDS011;3706;49.198;7.064;2023-09-19T02:07:17;3.93;;;2.53;;
7330;SDS011;3706;49.198;7.064;2023-09-19T02:09:44;5.57;;;3.03;;
7330;SDS011;3706;49.198;7.064;2023-09-19T02:12:13;5.93;;;2.80;;
7330;SDS011;3706;49.198;7.064;2023-09-19T02:14:40;5.23;;;2.57;;
7330;SDS011;3706;49.198;7.064;2023-09-19T02:17:07;7.70;;;2.50;;
7330;SDS011;3706;49.198;7.064;2023-09-19T02:19:38;5.03;;;2.80;;
7330;SDS011;3706;49.198;7.064;2023-09-19T02:22:06;3.73;;;2.53;;
7330;SDS011;3706;49.198;7.064;2023-09-19T02:24:35;8.17;;;2.77;;
7330;SDS011;3706;49.198;7.064;2023-09-19T02:27:03;9.40;;;2.60;;
7330;SDS011;3706;49.198;7.064;2023-09-19T02:29:30;3.73;;;2.40;;
7330;SDS011;3706;49.198;7.064;2023-09-19T02:31:57;4.37;;;2.63;;
7330;SDS011;3706;49.198;7.064;2023-09-19T02:34:24;5.93;;;3.07;;
7330;SDS011;3706;49.198;7.064;2023-09-19T02:36:53;8.07;;;2.60;;
7330;SDS011;3706;49.198;7.064;2023-09-19T02:39:21;7.43;;;3.30;;
7330;SDS011;3706;49.198;7.064;2023-09-19T02:41:48;4.87;;;2.60;;
7330;SDS011;3706;49.198;7.064;2023-09-19T02:44:15;5.53;;;2.97;;
7330;SDS011;3706;49.198;7.064;2023-09-19T02:46:42;4.47;;;2.60;;
7330;SDS011;3706;49.198;7.064;2023-09-19T02:49:09;8.13;;;3.40;;
7330;SDS011;3706;49.198;7.064;2023-09-19T02:51:38;3.50;;;3.03;;
7330;SDS011;3706;49.198;7.064;2023-09-19T02:54:07;7.57;;;2.67;;
7330;SDS011;3706;49.198;7.064;2023-09-19T02:56:35;6.50;;;2.93;;
7330;SDS011;3706;49.198;7.064;2023-09-19T02:59:02;7.03;;;3.30;;
7330;SDS011;3706;49.198;7.064;2023-09-19T03:01:29;7.17;;;2.70;;
7330;SDS011;3706;49.198;7.064;2023-09-19T03:03:57;10.07;;;2.90;;
7330;SDS011;3706;49.198;7.064;2023-09-19T03:06:24;6.00;;;3.20;;
7330;SDS011;3706;49.198;7.064;2023-09-19T03:08:51;3.90;;;2.70;;
7330;SDS011;3706;49.198;7.064;2023-09-19T03:11:20;7.53;;;2.80;;
7330;SDS011;3706;49.198;7.064;2023-09-19T03:13:50;9.77;;;3.20;;
7330;SDS011;3706;49.198;7.064;2023-09-19T03:16:18;5.57;;;2.90;;
7330;SDS011;3706;49.198;7.064;2023-09-19T03:18:46;7.33;;;3.23;;
7330;SDS011;3706;49.198;7.064;2023-09-19T03:21:14;7.47;;;3.00;;
7330;SDS011;3706;49.198;7.064;2023-09-19T03:23:41;9.00;;;3.27;;
7330;SDS011;3706;49.198;7.064;2023-09-19T03:26:10;10.50;;;3.10;;
7330;SDS011;3706;49.198;7.064;2023-09-19T03:28:41;5.43;;;3.00;;
7330;SDS011;3706;49.198;7.064;2023-09-19T03:31:08;10.57;;;3.67;;
7330;SDS011;3706;49.198;7.064;2023-09-19T03:33:36;6.77;;;3.00;;
7330;SDS011;3706;49.198;7.064;2023-09-19T03:36:03;10.97;;;3.07;;
7330;SDS011;3706;49.198;7.064;2023-09-19T03:38:31;4.83;;;2.87;;
7330;SDS011;3706;49.198;7.064;2023-09-19T03:40:59;8.30;;;3.07;;
7330;SDS011;3706;49.198;7.064;2023-09-19T03:43:26;5.33;;;3.13;;
7330;SDS011;3706;49.198;7.064;2023-09-19T03:45:54;8.20;;;3.13;;
7330;SDS011;3706;49.198;7.064;2023-09-19T03:48:21;4.83;;;2.90;;
7330;SDS011;3706;49.198;7.064;2023-09-19T03:50:48;10.33;;;3.00;;
7330;SDS011;3706;49.198;7.064;2023-09-19T03:53:16;5.07;;;3.00;;
7330;SDS011;3706;49.198;7.064;2023-09-19T03:55:44;7.73;;;2.80;;
7330;SDS011;3706;49.198;7.064;2023-09-19T03:58:12;3.97;;;2.57;;
7330;SDS011;3706;49.198;7.064;2023-09-19T04:00:39;6.00;;;2.90;;
7330;SDS011;3706;49.198;7.064;2023-09-19T04:03:07;6.17;;;2.90;;
7330;SDS011;3706;49.198;7.064;2023-09-19T04:05:35;5.77;;;3.03;;
7330;SDS011;3706;49.198;7.064;2023-09-19T04:08:02;6.13;;;3.27;;
7330;SDS011;3706;49.198;7.064;2023-09-19T04:10:30;5.00;;;3.17;;
7330;SDS011;3706;49.198;7.064;2023-09-19T04:12:57;9.13;;;3.40;;
7330;SDS011;3706;49.198;7.064;2023-09-19T04:15:24;5.70;;;2.87;;
7330;SDS011;3706;49.198;7.064;2023-09-19T04:17:51;9.53;;;3.57;;
7330;SDS011;3706;49.198;7.064;2023-09-19T04:20:19;6.03;;;2.83;;
7330;SDS011;3706;49.198;7.064;2023-09-19T04:22:48;4.60;;;2.90;;
7330;SDS011;3706;49.198;7.064;2023-09-19T04:25:14;4.83;;;3.10;;
7330;SDS011;3706;49.198;7.064;2023-09-19T04:27:41;6.67;;;3.10;;
7330;SDS011;3706;49.198;7.064;2023-09-19T04:30:10;6.03;;;3.07;;
7330;SDS011;3706;49.198;7.064;2023-09-19T04:32:37;8.10;;;3.10;;
7330;SDS011;3706;49.198;7.064;2023-09-19T04:35:06;5.10;;;2.37;;
7330;SDS011;3706;49.198;7.064;2023-09-19T04:37:37;7.83;;;2.90;;
7330;SDS011;3706;49.198;7.064;2023-09-19T04:40:06;8.53;;;3.40;;
7330;SDS011;3706;49.198;7.064;2023-09-19T04:42:37;7.83;;;3.17;;
7330;SDS011;3706;49.198;7.064;2023-09-19T04:45:05;5.77;;;3.23;;
7330;SDS011;3706;49.198;7.064;2023-09-19T04:47:34;7.50;;;3.17;;
7330;SDS011;3706;49.198;7.064;2023-09-19T04:50:05;7.73;;;2.80;;
7330;SDS011;3706;49.198;7.064;2023-09-19T04:52:38;9.63;;;3.33;;
7330;SDS011;3706;49.198;7.064;2023-09-19T04:55:07;5.83;;;3.27;;
7330;SDS011;3706;49.198;7.064;2023-09-19T04:57:35;4.83;;;3.37;;
7330;SDS011;3706;49.198;7.064;2023-09-19T05:00:04;6.97;;;3.03;;
7330;SDS011;3706;49.198;7.064;2023-09-19T05:02:39;6.73;;;2.80;;
7330;SDS011;3706;49.198;7.064;2023-09-19T05:05:07;6.43;;;3.27;;
7330;SDS011;3706;49.198;7.064;2023-09-19T05:07:35;6.50;;;3.27;;
7330;SDS011;3706;49.198;7.064;2023-09-19T05:10:03;4.57;;;2.50;;
7330;SDS011;3706;49.198;7.064;2023-09-19T05:12:32;9.20;;;3.60;;
7330;SDS011;3706;49.198;7.064;2023-09-19T05:15:00;8.43;;;3.43;;
7330;SDS011;3706;49.198;7.064;2023-09-19T05:17:27;8.43;;;3.77;;
7330;SDS011;3706;49.198;7.064;2023-09-19T05:19:54;3.00;;;2.70;;
7330;SDS011;3706;49.198;7.064;2023-09-19T05:22:21;7.07;;;3.03;;
7330;SDS011;3706;49.198;7.064;2023-09-19T05:24:49;3.93;;;3.23;;
7330;SDS011;3706;49.198;7.064;2023-09-19T05:27:19;7.07;;;3.30;;
7330;SDS011;3706;49.198;7.064;2023-09-19T05:29:47;6.97;;;2.80;;
7330;SDS011;3706;49.198;7.064;2023-09-19T05:32:14;4.80;;;2.80;;
7330;SDS011;3706;49.198;7.064;2023-09-19T05:34:41;4.63;;;2.70;;
7330;SDS011;3706;49.198;7.064;2023-09-19T05:37:08;6.67;;;3.13;;
7330;SDS011;3706;49.198;7.064;2023-09-19T05:39:34;6.50;;;2.70;;
7330;SDS011;3706;49.198;7.064;2023-09-19T05:42:02;7.60;;;2.53;;
7330;SDS011;3706;49.198;7.064;2023-09-19T05:44:31;5.17;;;2.70;;
7330;SDS011;3706;49.198;7.064;2023-09-19T05:46:58;8.10;;;3.10;;
7330;SDS011;3706;49.198;7.064;2023-09-19T05:49:25;11.17;;;2.83;;
7330;SDS011;3706;49.198;7.064;2023-09-19T05:51:52;5.83;;;2.50;;
7330;SDS011;3706;49.198;7.064;2023-09-19T05:54:21;7.53;;;2.40;;
7330;SDS011;3706;49.198;7.064;2023-09-19T05:56:48;7.37;;;2.93;;
7330;SDS011;3706;49.198;7.064;2023-09-19T05:59:18;3.20;;;2.17;;
7330;SDS011;3706;49.198;7.064;2023-09-19T06:01:46;7.47;;;2.60;;
7330;SDS011;3706;49.198;7.064;2023-09-19T06:04:13;4.20;;;1.83;;
7330;SDS011;3706;49.198;7.064;2023-09-19T06:06:40;5.43;;;2.43;;
7330;SDS011;3706;49.198;7.064;2023-09-19T06:09:07;4.33;;;2.37;;
7330;SDS011;3706;49.198;7.064;2023-09-19T06:11:34;4.63;;;2.23;;
7330;SDS011;3706;49.198;7.064;2023-09-19T06:14:02;6.17;;;2.27;;
7330;SDS011;3706;49.198;7.064;2023-09-19T06:16:30;6.93;;;1.80;;
7330;SDS011;3706;49.198;7.064;2023-09-19T06:18:59;5.10;;;2.40;;
7330;SDS011;3706;49.198;7.064;2023-09-19T06:21:26;8.30;;;2.20;;
7330;SDS011;3706;49.198;7.064;2023-09-19T06:23:53;5.17;;;2.50;;
7330;SDS011;3706;49.198;7.064;2023-09-19T06:26:20;4.63;;;1.90;;
7330;SDS011;3706;49.198;7.064;2023-09-19T06:28:48;5.17;;;2.10;;
7330;SDS011;3706;49.198;7.064;2023-09-19T06:31:16;7.20;;;2.47;;
7330;SDS011;3706;49.198;7.064;2023-09-19T06:33:43;6.77;;;2.30;;
7330;SDS011;3706;49.198;7.064;2023-09-19T06:36:11;5.87;;;2.10;;
7330;SDS011;3706;49.198;7.064;2023-09-19T06:38:38;5.07;;;2.20;;
7330;SDS011;3706;49.198;7.064;2023-09-19T06:41:06;6.80;;;2.13;;
7330;SDS011;3706;49.198;7.064;2023-09-19T06:43:33;5.43;;;1.93;;
7330;SDS011;3706;49.198;7.064;2023-09-19T06:46:01;3.70;;;1.97;;
7330;SDS011;3706;49.198;7.064;2023-09-19T06:48:29;7.07;;;2.13;;
7330;SDS011;3706;49.198;7.064;2023-09-19T06:50:55;6.10;;;2.37;;
7330;SDS011;3706;49.198;7.064;2023-09-19T06:53:24;5.07;;;2.27;;
7330;SDS011;3706;49.198;7.064;2023-09-19T06:55:51;7.83;;;2.30;;
7330;SDS011;3706;49.198;7.064;2023-09-19T06:58:19;6.77;;;2.10;;
7330;SDS011;3706;49.198;7.064;2023-09-19T07:00:46;4.33;;;2.13;;
7330;SDS011;3706;49.198;7.064;2023-09-19T07:03:15;6.83;;;2.30;;
7330;SDS011;3706;49.198;7.064;2023-09-19T07:05:43;6.40;;;2.27;;
7330;SDS011;3706;49.198;7.064;2023-09-19T07:08:10;5.03;;;1.90;;
7330;SDS011;3706;49.198;7.064;2023-09-19T07:10:39;7.93;;;2.50;;
7330;SDS011;3706;49.198;7.064;2023-09-19T07:13:07;5.57;;;2.60;;
7330;SDS011;3706;49.198;7.064;2023-09-19T07:15:36;3.37;;;2.00;;
7330;SDS011;3706;49.198;7.064;2023-09-19T07:18:06;3.73;;;1.90;;
7330;SDS011;3706;49.198;7.064;2023-09-19T07:20:36;8.10;;;2.07;;
7330;SDS011;3706;49.198;7.064;2023-09-19T07:23:03;7.07;;;2.37;;
7330;SDS011;3706;49.198;7.064;2023-09-19T07:25:31;6.63;;;1.93;;
7330;SDS011;3706;49.198;7.064;2023-09-19T07:28:00;6.17;;;2.07;;
7330;SDS011;3706;49.198;7.064;2023-09-19T07:30:27;5.37;;;2.07;;
7330;SDS011;3706;49.198;7.064;2023-09-19T07:32:54;7.87;;;2.30;;
7330;SDS011;3706;49.198;7.064;2023-09-19T07:35:21;3.33;;;1.70;;
7330;SDS011;3706;49.198;7.064;2023-09-19T07:37:48;3.80;;;1.90;;
7330;SDS011;3706;49.198;7.064;2023-09-19T07:40:16;5.80;;;2.17;;
7330;SDS011;3706;49.198;7.064;2023-09-19T07:42:44;8.13;;;2.30;;
7330;SDS011;3706;49.198;7.064;2023-09-19T07:45:13;5.33;;;2.20;;
7330;SDS011;3706;49.198;7.064;2023-09-19T07:47:43;6.20;;;2.20;;
7330;SDS011;3706;49.198;7.064;2023-09-19T07:50:11;4.53;;;1.90;;
7330;SDS011;3706;49.198;7.064;2023-09-19T07:52:38;5.33;;;2.40;;
7330;SDS011;3706;49.198;7.064;2023-09-19T07:55:06;5.90;;;2.20;;
7330;SDS011;3706;49.198;7.064;2023-09-19T07:57:36;6.43;;;2.37;;
7330;SDS011;3706;49.198;7.064;2023-09-19T08:00:03;7.73;;;2.23;;
7330;SDS011;3706;49.198;7.064;2023-09-19T08:02:35;7.63;;;2.50;;
7330;SDS011;3706;49.198;7.064;2023-09-19T08:05:04;4.90;;;2.10;;
7330;SDS011;3706;49.198;7.064;2023-09-19T08:07:34;5.67;;;2.27;;
7330;SDS011;3706;49.198;7.064;2023-09-19T08:10:02;6.80;;;2.10;;
7330;SDS011;3706;49.198;7.064;2023-09-19T08:12:29;5.20;;;2.20;;
7330;SDS011;3706;49.198;7.064;2023-09-19T08:14:57;4.47;;;2.00;;
7330;SDS011;3706;49.198;7.064;2023-09-19T08:17:24;7.30;;;2.40;;
7330;SDS011;3706;49.198;7.064;2023-09-19T08:19:52;3.83;;;2.07;;
7330;SDS011;3706;49.198;7.064;2023-09-19T08:22:19;5.10;;;2.40;;
7330;SDS011;3706;49.198;7.064;2023-09-19T08:24:48;8.93;;;2.50;;
7330;SDS011;3706;49.198;7.064;2023-09-19T08:27:15;5.37;;;2.27;;
7330;SDS011;3706;49.198;7.064;2023-09-19T08:29:43;5.93;;;1.90;;
7330;SDS011;3706;49.198;7.064;2023-09-19T08:32:11;4.93;;;2.03;;
7330;SDS011;3706;49.198;7.064;2023-09-19T08:34:39;7.07;;;2.20;;
7330;SDS011;3706;49.198;7.064;2023-09-19T08:37:08;3.90;;;2.00;;
7330;SDS011;3706;49.198;7.064;2023-09-19T08:39:35;6.03;;;2.03;;
7330;SDS011;3706;49.198;7.064;2023-09-19T08:42:03;7.73;;;2.50;;
7330;SDS011;3706;49.198;7.064;2023-09-19T08:44:30;7.33;;;2.60;;
7330;SDS011;3706;49.198;7.064;2023-09-19T08:47:07;6.93;;;2.53;;
7330;SDS011;3706;49.198;7.064;2023-09-19T08:49:38;5.53;;;2.23;;
7330;SDS011;3706;49.198;7.064;2023-09-19T08:52:16;7.77;;;2.27;;
7330;SDS011;3706;49.198;7.064;2023-09-19T08:54:48;7.93;;;2.30;;
7330;SDS011;3706;49.198;7.064;2023-09-19T08:57:17;7.03;;;2.33;;
7330;SDS011;3706;49.198;7.064;2023-09-19T08:59:47;6.70;;;2.13;;
7330;SDS011;3706;49.198;7.064;2023-09-19T09:02:15;5.63;;;2.03;;
7330;SDS011;3706;49.198;7.064;2023-09-19T09:04:44;5.90;;;2.27;;
7330;SDS011;3706;49.198;7.064;2023-09-19T09:07:12;6.77;;;2.27;;
7330;SDS011;3706;49.198;7.064;2023-09-19T09:09:41;7.37;;;2.13;;
7330;SDS011;3706;49.198;7.064;2023-09-19T09:12:10;6.27;;;2.37;;
7330;SDS011;3706;49.198;7.064;2023-09-19T09:14:38;5.07;;;2.13;;
7330;SDS011;3706;49.198;7.064;2023-09-19T09:17:06;6.13;;;2.13;;
7330;SDS011;3706;49.198;7.064;2023-09-19T09:19:33;6.67;;;2.13;;
7330;SDS011;3706;49.198;7.064;2023-09-19T09:22:10;4.47;;;2.00;;
7330;SDS011;3706;49.198;7.064;2023-09-19T09:24:50;16.13;;;3.13;;
7330;SDS011;3706;49.198;7.064;2023-09-19T09:27:19;6.33;;;2.30;;
7330;SDS011;3706;49.198;7.064;2023-09-19T09:29:49;5.70;;;2.20;;
7330;SDS011;3706;49.198;7.064;2023-09-19T09:32:18;5.53;;;1.83;;
7330;SDS011;3706;49.198;7.064;2023-09-19T09:34:49;6.20;;;2.47;;
7330;SDS011;3706;49.198;7.064;2023-09-19T09:37:19;5.00;;;2.10;;
7330;SDS011;3706;49.198;7.064;2023-09-19T09:39:52;5.90;;;1.93;;
7330;SDS011;3706;49.198;7.064;2023-09-19T09:42:30;4.07;;;1.93;;
7330;SDS011;3706;49.198;7.064;2023-09-19T09:45:13;6.97;;;2.37;;
7330;SDS011;3706;49.198;7.064;2023-09-19T09:47:42;6.53;;;2.30;;
7330;SDS011;3706;49.198;7.064;2023-09-19T09:50:23;9.93;;;2.10;;
7330;SDS011;3706;49.198;7.064;2023-09-19T09:53:21;13.00;;;2.03;;
7330;SDS011;3706;49.198;7.064;2023-09-19T09:55:58;4.90;;;1.90;;
7330;SDS011;3706;49.198;7.064;2023-09-19T09:58:27;4.90;;;2.07;;
7330;SDS011;3706;49.198;7.064;2023-09-19T10:00:56;3.30;;;1.77;;
7330;SDS011;3706;49.198;7.064;2023-09-19T10:03:36;6.53;;;1.80;;
7330;SDS011;3706;49.198;7.064;2023-09-19T10:06:06;4.83;;;2.07;;
7330;SDS011;3706;49.198;7.064;2023-09-19T10:09:03;1.87;;;1.20;;
7330;SDS011;3706;49.198;7.064;2023-09-19T10:11:47;6.60;;;2.20;;
7330;SDS011;3706;49.198;7.064;2023-09-19T10:14:19;5.67;;;1.80;;
7330;SDS011;3706;49.198;7.064;2023-09-19T10:16:49;2.80;;;1.60;;
7330;SDS011;3706;49.198;7.064;2023-09-19T10:19:20;4.23;;;1.83;;
7330;SDS011;3706;49.198;7.064;2023-09-19T10:21:49;4.80;;;1.77;;
7330;SDS011;3706;49.198;7.064;2023-09-19T10:24:20;3.00;;;1.50;;
7330;SDS011;3706;49.198;7.064;2023-09-19T10:26:52;3.03;;;1.37;;
7330;SDS011;3706;49.198;7.064;2023-09-19T10:29:20;4.07;;;1.70;;
7330;SDS011;3706;49.198;7.064;2023-09-19T10:31:51;4.23;;;1.53;;
7330;SDS011;3706;49.198;7.064;2023-09-19T10:34:19;3.47;;;1.53;;
7330;SDS011;3706;49.198;7.064;2023-09-19T10:36:48;5.33;;;1.80;;
7330;SDS011;3706;49.198;7.064;2023-09-19T10:39:18;2.83;;;1.70;;
7330;SDS011;3706;49.198;7.064;2023-09-19T10:41:47;3.03;;;1.80;;
7330;SDS011;3706;49.198;7.064;2023-09-19T10:44:21;3.07;;;1.70;;
7330;SDS011;3706;49.198;7.064;2023-09-19T10:46:50;3.03;;;1.47;;
7330;SDS011;3706;49.198;7.064;2023-09-19T10:49:19;3.97;;;2.00;;
7330;SDS011;3706;49.198;7.064;2023-09-19T10:51:46;2.50;;;1.53;;
7330;SDS011;3706;49.198;7.064;2023-09-19T10:54:16;2.53;;;1.50;;
7330;SDS011;3706;49.198;7.064;2023-09-19T10:56:53;3.60;;;1.57;;
7330;SDS011;3706;49.198;7.064;2023-09-19T10:59:23;2.50;;;1.70;;
7330;SDS011;3706;49.198;7.064;2023-09-19T11:01:59;2.93;;;1.57;;
7330;SDS011;3706;49.198;7.064;2023-09-19T11:04:42;2.77;;;1.70;;
7330;SDS011;3706;49.198;7.064;2023-09-19T11:07:13;4.57;;;1.73;;
7330;SDS011;3706;49.198;7.064;2023-09-19T11:09:44;5.03;;;1.90;;
7330;SDS011;3706;49.198;7.064;2023-09-19T11:12:13;2.57;;;1.37;;
7330;SDS011;3706;49.198;7.064;2023-09-19T11:21:39;2.27;;;1.50;;
7330;SDS011;3706;49.198;7.064;2023-09-19T11:24:30;3.33;;;1.70;;
7330;SDS011;3706;49.198;7.064;2023-09-19T11:27:14;4.43;;;2.00;;
7330;SDS011;3706;49.198;7.064;2023-09-19T11:29:43;3.23;;;1.93;;
7330;SDS011;3706;49.198;7.064;2023-09-19T11:32:11;2.67;;;1.63;;
7330;SDS011;3706;49.198;7.064;2023-09-19T11:34:48;4.17;;;1.83;;
7330;SDS011;3706;49.198;7.064;2023-09-19T11:40:36;3.80;;;1.60;;
7330;SDS011;3706;49.198;7.064;2023-09-19T11:46:08;3.23;;;1.60;;
7330;SDS011;3706;49.198;7.064;2023-09-19T11:48:36;4.80;;;1.83;;
7330;SDS011;3706;49.198;7.064;2023-09-19T11:51:13;6.80;;;1.93;;
7330;SDS011;3706;49.198;7.064;2023-09-19T11:53:47;5.27;;;2.00;;
7330;SDS011;3706;49.198;7.064;2023-09-19T11:56:15;3.47;;;1.60;;
7330;SDS011;3706;49.198;7.064;2023-09-19T11:58:45;4.70;;;1.83;;
7330;SDS011;3706;49.198;7.064;2023-09-19T12:01:14;3.90;;;1.60;;
7330;SDS011;3706;49.198;7.064;2023-09-19T12:03:52;4.50;;;1.67;;
7330;SDS011;3706;49.198;7.064;2023-09-19T12:06:22;4.13;;;1.77;;
7330;SDS011;3706;49.198;7.064;2023-09-19T12:08:50;3.20;;;1.50;;
7330;SDS011;3706;49.198;7.064;2023-09-19T12:11:19;2.87;;;1.80;;
7330;SDS011;3706;49.198;7.064;2023-09-19T12:13:53;2.80;;;1.57;;
7330;SDS011;3706;49.198;7.064;2023-09-19T12:16:24;3.43;;;1.90;;
7330;SDS011;3706;49.198;7.064;2023-09-19T12:18:51;3.10;;;1.60;;
7330;SDS011;3706;49.198;7.064;2023-09-19T12:21:22;2.20;;;1.53;;
7330;SDS011;3706;49.198;7.064;2023-09-19T12:26:44;4.30;;;1.83;;
7330;SDS011;3706;49.198;7.064;2023-09-19T12:29:15;3.30;;;1.40;;
7330;SDS011;3706;49.198;7.064;2023-09-19T12:31:49;2.40;;;1.47;;
7330;SDS011;3706;49.198;7.064;2023-09-19T12:34:22;2.57;;;1.57;;
7330;SDS011;3706;49.198;7.064;2023-09-19T12:37:03;2.30;;;1.33;;
7330;SDS011;3706;49.198;7.064;2023-09-19T12:39:36;3.87;;;1.57;;
7330;SDS011;3706;49.198;7.064;2023-09-19T12:42:04;2.40;;;1.40;;
7330;SDS011;3706;49.198;7.064;2023-09-19T12:44:35;3.70;;;1.80;;
7330;SDS011;3706;49.198;7.064;2023-09-19T12:47:13;2.73;;;1.40;;
7330;SDS011;3706;49.198;7.064;2023-09-19T12:52:42;3.73;;;1.80;;
7330;SDS011;3706;49.198;7.064;2023-09-19T12:55:22;3.60;;;1.87;;
7330;SDS011;3706;49.198;7.064;2023-09-19T12:57:59;3.30;;;1.63;;
7330;SDS011;3706;49.198;7.064;2023-09-19T13:00:36;4.80;;;1.70;;
7330;SDS011;3706;49.198;7.064;2023-09-19T13:03:14;3.97;;;1.50;;
7330;SDS011;3706;49.198;7.064;2023-09-19T13:05:53;2.97;;;1.40;;
7330;SDS011;3706;49.198;7.064;2023-09-19T13:08:26;3.07;;;1.70;;
7330;SDS011;3706;49.198;7.064;2023-09-19T13:11:08;4.33;;;1.67;;
7330;SDS011;3706;49.198;7.064;2023-09-19T13:13:37;3.03;;;1.50;;
7330;SDS011;3706;49.198;7.064;2023-09-19T13:16:07;3.63;;;1.53;;
7330;SDS011;3706;49.198;7.064;2023-09-19T13:18:44;3.73;;;1.47;;
7330;SDS011;3706;49.198;7.064;2023-09-19T13:21:13;2.40;;;1.53;;
7330;SDS011;3706;49.198;7.064;2023-09-19T13:23:51;2.23;;;1.53;;
7330;SDS011;3706;49.198;7.064;2023-09-19T13:26:19;5.03;;;1.50;;
7330;SDS011;3706;49.198;7.064;2023-09-19T13:28:47;3.40;;;1.57;;
7330;SDS011;3706;49.198;7.064;2023-09-19T13:31:16;1.57;;;1.20;;
7330;SDS011;3706;49.198;7.064;2023-09-19T13:33:43;3.60;;;1.40;;
7330;SDS011;3706;49.198;7.064;2023-09-19T13:36:11;5.40;;;1.37;;
7330;SDS011;3706;49.198;7.064;2023-09-19T13:38:38;2.90;;;1.20;;
7330;SDS011;3706;49.198;7.064;2023-09-19T13:41:05;2.30;;;1.30;;
7330;SDS011;3706;49.198;7.064;2023-09-19T13:43:32;1.57;;;1.30;;
7330;SDS011;3706;49.198;7.064;2023-09-19T13:45:59;2.30;;;1.23;;
7330;SDS011;3706;49.198;7.064;2023-09-19T13:48:29;4.60;;;1.30;;
7330;SDS011;3706;49.198;7.064;2023-09-19T13:50:56;2.97;;;1.30;;
7330;SDS011;3706;49.198;7.064;2023-09-19T13:53:23;2.37;;;1.30;;
7330;SDS011;3706;49.198;7.064;2023-09-19T13:55:51;3.17;;;1.37;;
7330;SDS011;3706;49.198;7.064;2023-09-19T13:58:18;3.27;;;1.30;;
7330;SDS011;3706;49.198;7.064;2023-09-19T14:00:46;4.23;;;1.40;;
7330;SDS011;3706;49.198;7.064;2023-09-19T14:03:13;3.07;;;1.37;;
7330;SDS011;3706;49.198;7.064;2023-09-19T14:05:41;3.17;;;1.07;;
7330;SDS011;3706;49.198;7.064;2023-09-19T14:08:08;2.43;;;1.30;;
7330;SDS011;3706;49.198;7.064;2023-09-19T14:10:38;3.33;;;1.10;;
7330;SDS011;3706;49.198;7.064;2023-09-19T14:13:04;2.47;;;1.30;;
7330;SDS011;3706;49.198;7.064;2023-09-19T14:15:31;4.00;;;1.23;;
7330;SDS011;3706;49.198;7.064;2023-09-19T14:18:00;1.70;;;1.30;;
7330;SDS011;3706;49.198;7.064;2023-09-19T14:20:27;2.97;;;1.73;;
7330;SDS011;3706;49.198;7.064;2023-09-19T14:22:55;3.87;;;1.40;;
7330;SDS011;3706;49.198;7.064;2023-09-19T14:25:23;2.37;;;1.33;;
7330;SDS011;3706;49.198;7.064;2023-09-19T14:27:51;2.33;;;1.50;;
7330;SDS011;3706;49.198;7.064;2023-09-19T14:30:17;3.83;;;1.40;;
7330;SDS011;3706;49.198;7.064;2023-09-19T14:32:44;1.90;;;1.43;;
7330;SDS011;3706;49.198;7.064;2023-09-19T14:35:11;2.77;;;1.30;;
7330;SDS011;3706;49.198;7.064;2023-09-19T14:37:39;1.50;;;1.20;;
7330;SDS011;3706;49.198;7.064;2023-09-19T14:40:08;5.00;;;2.50;;
7330;SDS011;3706;49.198;7.064;2023-09-19T14:42:38;4.60;;;1.57;;
7330;SDS011;3706;49.198;7.064;2023-09-19T14:45:05;1.40;;;1.30;;
7330;SDS011;3706;49.198;7.064;2023-09-19T14:47:33;1.80;;;1.20;;
7330;SDS011;3706;49.198;7.064;2023-09-19T14:50:01;3.47;;;1.43;;
7330;SDS011;3706;49.198;7.064;2023-09-19T14:52:31;4.43;;;1.43;;
7330;SDS011;3706;49.198;7.064;2023-09-19T14:54:58;2.43;;;1.37;;
7330;SDS011;3706;49.198;7.064;2023-09-19T14:57:28;2.73;;;1.37;;
7330;SDS011;3706;49.198;7.064;2023-09-19T14:59:55;1.80;;;1.30;;
7330;SDS011;3706;49.198;7.064;2023-09-19T15:02:21;3.73;;;1.43;;
7330;SDS011;3706;49.198;7.064;2023-09-19T15:04:48;2.60;;;1.13;;
7330;SDS011;3706;49.198;7.064;2023-09-19T15:07:16;1.90;;;1.37;;
7330;SDS011;3706;49.198;7.064;2023-09-19T15:09:43;3.23;;;1.40;;
7330;SDS011;3706;49.198;7.064;2023-09-19T15:12:11;2.17;;;1.40;;
7330;SDS011;3706;49.198;7.064;2023-09-19T15:14:40;2.93;;;1.50;;
7330;SDS011;3706;49.198;7.064;2023-09-19T15:17:08;2.93;;;1.43;;
7330;SDS011;3706;49.198;7.064;2023-09-19T15:19:34;2.97;;;1.30;;
7330;SDS011;3706;49.198;7.064;2023-09-19T15:22:03;3.93;;;1.60;;
7330;SDS011;3706;49.198;7.064;2023-09-19T15:24:31;2.80;;;1.30;;
7330;SDS011;3706;49.198;7.064;2023-09-19T15:26:58;3.10;;;1.40;;
7330;SDS011;3706;49.198;7.064;2023-09-19T15:29:25;3.70;;;1.70;;
7330;SDS011;3706;49.198;7.064;2023-09-19T15:31:54;5.50;;;1.33;;
7330;SDS011;3706;49.198;7.064;2023-09-19T15:34:26;3.33;;;1.27;;
7330;SDS011;3706;49.198;7.064;2023-09-19T15:36:54;1.43;;;1.03;;
7330;SDS011;3706;49.198;7.064;2023-09-19T15:39:21;2.50;;;1.50;;
7330;SDS011;3706;49.198;7.064;2023-09-19T15:41:48;2.90;;;1.27;;
7330;SDS011;3706;49.198;7.064;2023-09-19T15:44:18;1.13;;;1.03;;
7330;SDS011;3706;49.198;7.064;2023-09-19T15:46:45;1.87;;;1.10;;
7330;SDS011;3706;49.198;7.064;2023-09-19T15:49:14;1.93;;;1.40;;
7330;SDS011;3706;49.198;7.064;2023-09-19T15:51:41;2.70;;;0.90;;
7330;SDS011;3706;49.198;7.064;2023-09-19T15:54:09;1.70;;;1.40;;